Terminal Aerodrome Forecast
Issued by NWS

Home | Current Version | Previous Version | Text Only | Print | Product List | Glossary On
Versions: 1 2 3 4 5 6 7 8 9 10 11 12 13 14 15 16 17 18 19
000
FTUS43 KGRB 051739 AAB
TAFMTW
TAF AMD
KMTW 051739Z 0518/0618 20008G14KT P6SM BKN014
     FM052200 18010KT P6SM OVC010
     FM060900 18008KT P6SM OVC025
     FM061300 20008KT P6SM OVC015=

USA.gov is the U.S. government's official web portal to all federal, state and local government web resources and services.